Time,TemperatureF,DewpointF,PressureIn,WindDirection,WindDirectionDegrees,WindSpeedMPH,WindSpeedGustMPH,Humidity,HourlyPrecipIn,Conditions,Clouds,dailyrainin,SoftwareType,DateUTC
2013-01-10 00:03:00,34.0,30.0,-100.00,SW,235,0.0,14.0,85,0.00,,,-99.99,,2013-01-10 05:03:00,
2013-01-10 00:12:00,33.0,30.0,-100.00,WNW,292,1.0,14.0,86,0.00,,,-99.99,,2013-01-10 05:12:00,
2013-01-10 00:22:00,33.0,30.0,-100.00,WNW,290,0.0,14.0,86,0.00,,,-99.99,,2013-01-10 05:22:00,
2013-01-10 00:33:00,34.0,32.0,-100.00,WSW,247,1.0,14.0,88,0.00,,,-99.99,,2013-01-10 05:33:00,
2013-01-10 00:43:00,33.0,30.0,-100.00,SW,230,1.0,14.0,88,0.00,,,-99.99,,2013-01-10 05:43:00,
2013-01-10 00:52:00,32.0,30.0,-100.00,SW,230,1.0,14.0,89,0.00,,,-99.99,,2013-01-10 05:52:00,
2013-01-10 01:02:00,33.0,30.0,-100.00,WSW,242,0.0,14.0,88,0.00,,,-99.99,,2013-01-10 06:02:00,
2013-01-10 01:12:00,30.0,28.0,-100.00,West,259,1.0,14.0,88,0.00,,,-99.99,,2013-01-10 06:12:00,
2013-01-10 01:22:00,31.0,28.0,-100.00,West,272,0.0,14.0,90,0.00,,,-99.99,,2013-01-10 06:22:00,
2013-01-10 01:32:00,33.0,30.0,-100.00,WSW,238,1.0,14.0,90,0.00,,,-99.99,,2013-01-10 06:32:00,
2013-01-10 01:42:00,31.0,30.0,-100.00,SW,235,1.0,14.0,91,0.00,,,-99.99,,2013-01-10 06:42:00,
2013-01-10 01:52:00,31.0,28.0,-100.00,SW,214,1.0,14.0,91,0.00,,,-99.99,,2013-01-10 06:52:00,
2013-01-10 02:02:00,31.0,30.0,-100.00,SW,224,1.0,14.0,91,0.00,,,-99.99,,2013-01-10 07:02:00,
2013-01-10 02:12:00,31.0,30.0,-100.00,SW,230,0.0,14.0,91,0.00,,,-99.99,,2013-01-10 07:12:00,
2013-01-10 02:22:00,29.0,28.0,-100.00,SW,228,0.0,14.0,93,0.00,,,-99.99,,2013-01-10 07:22:00,
2013-01-10 02:32:00,31.0,30.0,-100.00,WSW,247,0.0,14.0,93,0.00,,,-99.99,,2013-01-10 07:32:00,
2013-01-10 02:42:00,28.0,27.0,-100.00,WSW,247,0.0,14.0,93,0.00,,,-99.99,,2013-01-10 07:42:00,
2013-01-10 02:52:00,30.0,28.0,-100.00,West,259,0.0,14.0,91,0.00,,,-99.99,,2013-01-10 07:52:00,
2013-01-10 03:02:00,27.0,27.0,-100.00,West,279,0.0,14.0,93,0.00,,,-99.99,,2013-01-10 08:02:00,
2013-01-10 03:12:00,30.0,30.0,-100.00,West,275,0.0,14.0,93,0.00,,,-99.99,,2013-01-10 08:12:00,
2013-01-10 03:22:00,27.0,27.0,-100.00,WSW,238,1.0,14.0,93,0.00,,,-99.99,,2013-01-10 08:22:00,
2013-01-10 03:32:00,27.0,27.0,-100.00,SW,234,1.0,14.0,95,0.00,,,-99.99,,2013-01-10 08:32:00,
2013-01-10 03:42:00,26.0,25.0,-100.00,West,264,0.0,14.0,93,0.00,,,-99.99,,2013-01-10 08:42:00,
2013-01-10 03:52:00,26.0,25.0,-100.00,WSW,248,0.0,14.0,94,0.00,,,-99.99,,2013-01-10 08:52:00,
2013-01-10 04:12:00,26.0,25.0,-100.00,NW,304,0.0,14.0,94,0.00,,,-99.99,,2013-01-10 09:12:00,
2013-01-10 04:22:00,26.0,25.0,-100.00,NNW,344,0.0,14.0,94,0.00,,,-99.99,,2013-01-10 09:22:00,
2013-01-10 04:42:00,26.0,25.0,-100.00,North,358,0.0,14.0,94,0.00,,,-99.99,,2013-01-10 09:42:00,
2013-01-10 04:52:00,28.0,27.0,-100.00,North,9,0.0,14.0,95,0.00,,,-99.99,,2013-01-10 09:52:00,
2013-01-10 05:03:00,25.0,25.0,-100.00,West,268,0.0,14.0,95,0.00,,,-99.99,,2013-01-10 10:03:00,
2013-01-10 05:12:00,27.0,27.0,-100.00,SW,218,0.0,14.0,94,0.00,,,-99.99,,2013-01-10 10:12:00,
2013-01-10 05:22:00,25.0,25.0,-100.00,WSW,241,0.0,14.0,95,0.00,,,-99.99,,2013-01-10 10:22:00,
2013-01-10 05:42:00,25.0,25.0,-100.00,WSW,245,0.0,14.0,95,0.00,,,-99.99,,2013-01-10 10:42:00,
2013-01-10 05:52:00,26.0,25.0,-100.00,North,352,0.0,14.0,94,0.00,,,-99.99,,2013-01-10 10:52:00,
2013-01-10 06:12:00,28.0,28.0,-100.00,NNW,334,0.0,0.0,97,0.00,,,-99.99,,2013-01-10 11:12:00,
2013-01-10 06:22:00,27.0,27.0,-100.00,SW,230,0.0,0.0,95,0.00,,,-99.99,,2013-01-10 11:22:00,
2013-01-10 06:33:00,25.0,25.0,-100.00,SW,230,1.0,1.0,95,0.00,,,-99.99,,2013-01-10 11:33:00,
2013-01-10 06:43:00,25.0,25.0,-100.00,SW,230,1.0,1.0,95,0.00,,,-99.99,,2013-01-10 11:43:00,
2013-01-10 06:52:00,25.0,25.0,-100.00,North,1,0.0,1.0,97,0.00,,,-99.99,,2013-01-10 11:52:00,
2013-01-10 07:12:00,25.0,25.0,-100.00,NNW,348,0.0,1.0,95,0.00,,,-99.99,,2013-01-10 12:12:00,
2013-01-10 07:22:00,25.0,25.0,-100.00,NE,35,0.0,1.0,95,0.00,,,-99.99,,2013-01-10 12:22:00,
2013-01-10 07:43:00,27.0,27.0,-100.00,NE,55,2.0,2.0,98,0.00,,,-99.99,,2013-01-10 12:43:00,
2013-01-10 07:53:00,28.0,28.0,-100.00,NE,38,1.0,2.0,97,0.00,,,-99.99,,2013-01-10 12:53:00,
2013-01-10 08:02:00,26.0,25.0,-100.00,WNW,290,1.0,2.0,95,0.00,,,-99.99,,2013-01-10 13:02:00,
2013-01-10 08:12:00,25.0,25.0,-100.00,West,273,0.0,2.0,95,0.00,,,-99.99,,2013-01-10 13:12:00,
2013-01-10 08:22:00,26.0,25.0,-100.00,NNE,18,0.0,2.0,97,0.00,,,-99.99,,2013-01-10 13:22:00,
2013-01-10 08:32:00,25.0,25.0,-100.00,West,262,0.0,2.0,97,0.00,,,-99.99,,2013-01-10 13:32:00,
2013-01-10 09:02:00,25.0,25.0,-100.00,NE,43,0.0,2.0,97,0.00,,,-99.99,,2013-01-10 14:02:00,
2013-01-10 09:12:00,27.0,27.0,-100.00,NE,50,0.0,2.0,97,0.00,,,-99.99,,2013-01-10 14:12:00,
2013-01-10 09:33:00,26.0,25.0,-100.00,ESE,112,0.0,2.0,95,0.00,,,-99.99,,2013-01-10 14:33:00,
2013-01-10 10:12:00,30.0,30.0,-100.00,WSW,249,0.0,2.0,97,0.00,,,-99.99,,2013-01-10 15:12:00,
2013-01-10 10:23:00,29.0,28.0,-100.00,West,275,0.0,2.0,95,0.00,,,-99.99,,2013-01-10 15:23:00,
2013-01-10 10:33:00,30.0,30.0,-100.00,WSW,238,0.0,2.0,95,0.00,,,-99.99,,2013-01-10 15:33:00,
2013-01-10 10:43:00,30.0,30.0,-100.00,West,265,0.0,2.0,95,0.00,,,-99.99,,2013-01-10 15:43:00,
2013-01-10 10:53:00,32.0,32.0,-100.00,WSW,242,0.0,2.0,94,0.00,,,-99.99,,2013-01-10 15:53:00,
2013-01-10 11:03:00,33.0,32.0,-100.00,WSW,252,0.0,2.0,93,0.00,,,-99.99,,2013-01-10 16:03:00,
2013-01-10 11:13:00,34.0,32.0,-100.00,SSW,199,0.0,2.0,91,0.00,,,-99.99,,2013-01-10 16:13:00,
2013-01-10 11:23:00,34.0,32.0,-100.00,NE,36,2.0,4.0,89,0.00,,,-99.99,,2013-01-10 16:23:00,
2013-01-10 11:33:00,36.0,32.0,-100.00,ENE,76,3.0,4.0,84,0.00,,,-99.99,,2013-01-10 16:33:00,
2013-01-10 11:43:00,38.0,32.0,-100.00,East,91,2.0,4.0,80,0.00,,,-99.99,,2013-01-10 16:43:00,
2013-01-10 11:53:00,38.0,32.0,-100.00,NE,55,3.0,4.0,75,0.00,,,-99.99,,2013-01-10 16:53:00,
2013-01-10 12:03:00,39.0,32.0,-100.00,ENE,66,2.0,4.0,72,0.00,,,-99.99,,2013-01-10 17:03:00,
2013-01-10 12:12:00,39.0,32.0,-100.00,NE,53,3.0,4.0,72,0.00,,,-99.99,,2013-01-10 17:12:00,
2013-01-10 12:22:00,39.0,32.0,-100.00,NE,52,4.0,6.0,72,0.00,,,-99.99,,2013-01-10 17:22:00,
2013-01-10 12:33:00,39.0,30.0,-100.00,ENE,62,4.0,6.0,69,0.00,,,-99.99,,2013-01-10 17:33:00,
2013-01-10 12:43:00,39.0,30.0,-100.00,NE,56,2.0,6.0,68,0.00,,,-99.99,,2013-01-10 17:43:00,
2013-01-10 12:53:00,39.0,30.0,-100.00,NE,35,2.0,6.0,68,0.00,,,-99.99,,2013-01-10 17:53:00,
2013-01-10 13:03:00,41.0,32.0,-100.00,NNE,33,2.0,6.0,66,0.00,,,-99.99,,2013-01-10 18:03:00,
2013-01-10 13:12:00,40.0,30.0,-100.00,NE,45,2.0,6.0,67,0.00,,,-99.99,,2013-01-10 18:12:00,
2013-01-10 13:23:00,41.0,32.0,-100.00,NNE,31,1.0,6.0,67,0.00,,,-99.99,,2013-01-10 18:23:00,
2013-01-10 13:33:00,39.0,30.0,-100.00,NNE,33,1.0,6.0,67,0.00,,,-99.99,,2013-01-10 18:33:00,
2013-01-10 13:43:00,42.0,32.0,-100.00,East,88,2.0,6.0,64,0.00,,,-99.99,,2013-01-10 18:43:00,
2013-01-10 13:52:00,41.0,30.0,-100.00,North,2,1.0,6.0,64,0.00,,,-99.99,,2013-01-10 18:52:00,
2013-01-10 14:03:00,41.0,30.0,-100.00,ENE,70,2.0,6.0,64,0.00,,,-99.99,,2013-01-10 19:03:00,
2013-01-10 14:13:00,40.0,30.0,-100.00,NE,46,1.0,6.0,64,0.00,,,-99.99,,2013-01-10 19:13:00,
2013-01-10 14:23:00,41.0,32.0,-100.00,NNE,32,1.0,6.0,66,0.00,,,-99.99,,2013-01-10 19:23:00,
2013-01-10 14:33:00,40.0,30.0,-100.00,ENE,57,1.0,6.0,64,0.00,,,-99.99,,2013-01-10 19:33:00,
2013-01-10 14:43:00,40.0,30.0,-100.00,ENE,63,2.0,6.0,64,0.00,,,-99.99,,2013-01-10 19:43:00,
2013-01-10 14:53:00,40.0,32.0,-100.00,ENE,59,2.0,6.0,67,0.00,,,-99.99,,2013-01-10 19:53:00,
2013-01-10 15:03:00,41.0,30.0,-100.00,East,88,1.0,6.0,64,0.00,,,-99.99,,2013-01-10 20:03:00,
2013-01-10 15:13:00,40.0,30.0,-100.00,NE,39,2.0,6.0,64,0.00,,,-99.99,,2013-01-10 20:13:00,
2013-01-10 15:24:00,40.0,30.0,-100.00,ENE,62,1.0,6.0,67,0.00,,,-99.99,,2013-01-10 20:24:00,
2013-01-10 15:33:00,40.0,30.0,-100.00,ENE,76,2.0,6.0,66,0.00,,,-99.99,,2013-01-10 20:33:00,
2013-01-10 15:43:00,40.0,30.0,-100.00,NE,55,2.0,6.0,64,0.00,,,-99.99,,2013-01-10 20:43:00,
2013-01-10 15:53:00,40.0,30.0,-100.00,NE,39,3.0,6.0,64,0.00,,,-99.99,,2013-01-10 20:53:00,
2013-01-10 16:04:00,40.0,30.0,-100.00,SSE,158,2.0,6.0,66,0.00,,,-99.99,,2013-01-10 21:04:00,
2013-01-10 16:13:00,40.0,30.0,-100.00,NNE,33,1.0,6.0,67,0.00,,,-99.99,,2013-01-10 21:13:00,
2013-01-10 16:23:00,40.0,30.0,-100.00,SE,128,1.0,6.0,66,0.00,,,-99.99,,2013-01-10 21:23:00,
2013-01-10 16:33:00,40.0,30.0,-100.00,NNE,28,0.0,6.0,66,0.00,,,-99.99,,2013-01-10 21:33:00,
2013-01-10 16:43:00,40.0,30.0,-100.00,NNE,33,2.0,6.0,67,0.00,,,-99.99,,2013-01-10 21:43:00,
2013-01-10 16:53:00,40.0,32.0,-100.00,East,90,1.0,6.0,68,0.00,,,-99.99,,2013-01-10 21:53:00,
2013-01-10 17:13:00,39.0,30.0,-100.00,SSE,168,0.0,6.0,69,0.00,,,-99.99,,2013-01-10 22:13:00,
2013-01-10 17:26:00,39.0,32.0,-100.00,NNE,15,1.0,6.0,71,0.00,,,-99.99,,2013-01-10 22:26:00,
2013-01-10 17:33:00,39.0,32.0,-100.00,NNW,336,0.0,6.0,72,0.00,,,-99.99,,2013-01-10 22:33:00,
2013-01-10 17:43:00,40.0,32.0,-100.00,NE,56,1.0,6.0,73,0.00,,,-99.99,,2013-01-10 22:43:00,
2013-01-10 18:03:00,41.0,32.0,-100.00,North,11,0.0,6.0,75,0.00,,,-99.99,,2013-01-10 23:03:00,
2013-01-10 18:13:00,38.0,32.0,-100.00,SW,216,0.0,6.0,73,0.00,,,-99.99,,2013-01-10 23:13:00,
2013-01-10 18:23:00,38.0,30.0,-100.00,ENE,57,1.0,6.0,73,0.00,,,-99.99,,2013-01-10 23:23:00,
2013-01-10 18:33:00,38.0,32.0,-100.00,NNW,333,0.0,6.0,75,0.00,,,-99.99,,2013-01-10 23:33:00,
2013-01-10 18:43:00,38.0,32.0,-100.00,SE,146,0.0,6.0,75,0.00,,,-99.99,,2013-01-10 23:43:00,
2013-01-10 18:53:00,38.0,32.0,-100.00,NW,306,0.0,6.0,75,0.00,,,-99.99,,2013-01-10 23:53:00,
2013-01-10 19:03:00,38.0,32.0,-100.00,NNE,26,1.0,6.0,75,0.00,,,-99.99,,2013-01-11 00:03:00,
2013-01-10 19:13:00,39.0,32.0,-100.00,ENE,59,2.0,6.0,73,0.00,,,-99.99,,2013-01-11 00:13:00,
2013-01-10 19:23:00,38.0,32.0,-100.00,NE,52,1.0,6.0,73,0.00,,,-99.99,,2013-01-11 00:23:00,
2013-01-10 19:33:00,38.0,32.0,-100.00,ENE,63,1.0,6.0,73,0.00,,,-99.99,,2013-01-11 00:33:00,
2013-01-10 19:43:00,39.0,32.0,-100.00,North,360,2.0,6.0,72,0.00,,,-99.99,,2013-01-11 00:43:00,
2013-01-10 19:52:00,39.0,32.0,-100.00,NE,53,2.0,6.0,72,0.00,,,-99.99,,2013-01-11 00:52:00,
2013-01-10 20:03:00,41.0,32.0,-100.00,NE,53,2.0,6.0,71,0.00,,,-99.99,,2013-01-11 01:03:00,
2013-01-10 20:13:00,39.0,32.0,-100.00,ENE,59,2.0,6.0,72,0.00,,,-99.99,,2013-01-11 01:13:00,
2013-01-10 20:23:00,37.0,30.0,-100.00,West,268,1.0,6.0,73,0.00,,,-99.99,,2013-01-11 01:23:00,
2013-01-10 20:34:00,40.0,32.0,-100.00,NNE,22,0.0,6.0,72,0.00,,,-99.99,,2013-01-11 01:34:00,
2013-01-10 20:43:00,40.0,32.0,-100.00,NE,50,1.0,6.0,75,0.00,,,-99.99,,2013-01-11 01:43:00,
2013-01-10 20:53:00,38.0,32.0,-100.00,NE,42,1.0,6.0,75,0.00,,,-99.99,,2013-01-11 01:53:00,
2013-01-10 21:03:00,38.0,30.0,-100.00,NNE,29,2.0,6.0,72,0.00,,,-99.99,,2013-01-11 02:03:00,
2013-01-10 21:13:00,39.0,32.0,-100.00,NNE,22,2.0,6.0,71,0.00,,,-99.99,,2013-01-11 02:13:00,
2013-01-10 21:23:00,40.0,30.0,-100.00,East,88,2.0,6.0,68,0.00,,,-99.99,,2013-01-11 02:23:00,
2013-01-10 21:33:00,38.0,30.0,-100.00,NNE,26,1.0,6.0,71,0.00,,,-99.99,,2013-01-11 02:33:00,
2013-01-10 21:43:00,39.0,30.0,-100.00,ENE,59,1.0,6.0,71,0.00,,,-99.99,,2013-01-11 02:43:00,
2013-01-10 21:53:00,38.0,30.0,-100.00,North,357,1.0,6.0,72,0.00,,,-99.99,,2013-01-11 02:53:00,
2013-01-10 22:03:00,39.0,32.0,-100.00,NE,38,1.0,6.0,72,0.00,,,-99.99,,2013-01-11 03:03:00,
2013-01-10 22:13:00,38.0,32.0,-100.00,West,275,0.0,6.0,73,0.00,,,-99.99,,2013-01-11 03:13:00,
2013-01-10 22:23:00,38.0,30.0,-100.00,East,80,0.0,6.0,73,0.00,,,-99.99,,2013-01-11 03:23:00,
2013-01-10 22:33:00,39.0,32.0,-100.00,NW,321,0.0,6.0,73,0.00,,,-99.99,,2013-01-11 03:33:00,
2013-01-10 22:43:00,38.0,32.0,-100.00,NNW,343,0.0,6.0,75,0.00,,,-99.99,,2013-01-11 03:43:00,
2013-01-10 22:53:00,38.0,30.0,-100.00,ENE,59,0.0,6.0,72,0.00,,,-99.99,,2013-01-11 03:53:00,
2013-01-10 23:02:00,39.0,32.0,-100.00,NNE,21,1.0,6.0,73,0.00,,,-99.99,,2013-01-11 04:02:00,
2013-01-10 23:12:00,39.0,32.0,-100.00,NE,52,1.0,6.0,72,0.00,,,-99.99,,2013-01-11 04:12:00,
2013-01-10 23:22:00,38.0,30.0,-100.00,East,97,1.0,6.0,72,0.00,,,-99.99,,2013-01-11 04:22:00,
2013-01-10 23:33:00,38.0,30.0,-100.00,NE,52,2.0,6.0,72,0.00,,,-99.99,,2013-01-11 04:33:00,
2013-01-10 23:43:00,40.0,32.0,-100.00,NE,49,2.0,6.0,71,0.00,,,-99.99,,2013-01-11 04:43:00,
2013-01-10 23:52:00,41.0,32.0,-100.00,ENE,77,2.0,6.0,71,0.00,,,-99.99,,2013-01-11 04:52:00,